KFBG/FBG METAR and TAF weather

Enter ICAO airport designator
Station Type Date Time Source
KFBG METAR 2020/09/19 20:56 UTC NOAA

KFBG 192056Z AUTO 02006KT 10SM FEW220 18/08 A3021 RMK AO2 SLP232 T01760076 55003 $


Station Type Date Time Source
KFBG Decoded METAR 2020/09/19 20:56 UTC NOAA

Fort Bragg / Simmons Army Airfield, NC, United States (KFBG) 35-08N 078-56W 74M
Sep 19, 2020 - 04:56 PM EDT / 2020.09.19 2056 UTC
Wind: from the NNE (020 degrees) at 7 MPH (6 KT):0
Visibility: 10 mile(s):0
Sky conditions: mostly clear
Temperature: 63.7 F (17.6 C)
Dew Point: 45.7 F (7.6 C)
Relative Humidity: 51%
Pressure (altimeter): 30.21 in. Hg (1023 hPa)
Pressure tendency: 0.01 inches (0.3 hPa) lower than three hours ago
ob: KFBG 192056Z AUTO 02006KT 10SM FEW220 18/08 A3021 RMK AO2 SLP232 T01760076 55003
cycle: 21

Station Type Date Time Source
KFBG TAF 2020/09/19 17:34 UTC NOAA

TAF KFBG 191700Z 1917/2023 03012G18KT 9999 FEW210 QNH3020INS
BECMG 1923/1924 03009KT 9999 FEW200 QNH3018INS
BECMG 2014/2015 03012KT 9999 FEW150 QNH3029INS
TEMPO 2015/2020 03012G18KT TX26/1918Z TN14/2011Z

Example: see airport list